createdAt,value
2017-11-29T00:00:04.932Z,950.39
2017-11-29T00:15:05.429Z,950.42
2017-11-29T00:30:04.600Z,950.12
2017-11-29T00:45:05.494Z,950.23
2017-11-29T01:00:08.007Z,950.2
2017-11-29T01:15:04.912Z,950.15
2017-11-29T01:30:04.528Z,950.04
2017-11-29T01:45:04.928Z,950.2
2017-11-29T02:02:16.160Z,950.31
2017-11-29T02:15:05.050Z,949.8
2017-11-29T02:30:04.977Z,949.69
2017-11-29T02:45:04.362Z,950.18
2017-11-29T03:00:04.772Z,949.99
2017-11-29T03:15:05.259Z,950.34
2017-11-29T03:30:04.892Z,950.39
2017-11-29T03:45:10.623Z,950.12
2017-11-29T04:00:04.989Z,949.64
2017-11-29T04:15:05.553Z,949.72
2017-11-29T04:30:05.233Z,949.61
2017-11-29T04:45:05.237Z,949.8
2017-11-29T05:00:05.777Z,949.69
2017-11-29T05:15:04.621Z,949.67
2017-11-29T05:30:04.509Z,949.37
2017-11-29T05:45:08.132Z,949.72
2017-11-29T06:00:05.542Z,949.43
2017-11-29T06:15:06.023Z,949.69
2017-11-29T06:30:05.767Z,949.64
2017-11-29T06:45:05.272Z,949.69
2017-11-29T07:00:05.817Z,949.53
2017-11-29T07:15:05.775Z,949.61
2017-11-29T07:30:04.487Z,949.59
2017-11-29T07:45:04.869Z,949.91
2017-11-29T08:00:04.803Z,949.03
2017-11-29T08:15:09.786Z,949
2017-11-29T08:30:04.880Z,948.95
2017-11-29T08:45:05.314Z,948.73
2017-11-29T09:00:04.749Z,948.57
2017-11-29T09:15:11.931Z,948.73
2017-11-29T09:30:05.037Z,955.56
2017-11-29T09:45:05.938Z,955.23
2017-11-29T10:00:05.900Z,954.86
2017-11-29T10:15:04.797Z,954.86
2017-11-29T10:30:04.941Z,954.72
2017-11-29T10:45:07.463Z,953.94
2017-11-29T11:00:04.815Z,954.53
2017-11-29T11:15:04.729Z,954.1
2017-11-29T11:30:06.426Z,953.61
2017-11-29T11:45:20.493Z,954.1
2017-11-29T12:00:09.864Z,953.59
2017-11-29T12:15:05.268Z,953.4
2017-11-29T12:30:07.456Z,952.91
2017-11-29T12:45:05.843Z,953.67
2017-11-29T13:00:04.769Z,953.24
2017-11-29T13:15:05.160Z,953.99
2017-11-29T13:30:11.386Z,953.61
2017-11-29T13:45:06.327Z,954.29
2017-11-29T14:00:05.214Z,954.32
2017-11-29T14:15:20.179Z,954.42
2017-11-29T14:30:08.397Z,947.74
2017-11-29T14:45:08.404Z,948.54
2017-11-29T15:00:06.404Z,948.41
2017-11-29T15:15:05.891Z,948.79
2017-11-29T15:30:04.486Z,948.84
2017-11-29T15:45:08.005Z,949.05
2017-11-29T16:00:04.925Z,949.19
2017-11-29T16:15:04.837Z,949.64
2017-11-29T16:30:05.520Z,949.4
2017-11-29T16:45:04.961Z,949.83
2017-11-29T17:00:05.452Z,949.67
2017-11-29T17:15:04.994Z,949.86
2017-11-29T17:30:04.609Z,950.07
2017-11-29T17:45:05.616Z,950.26
2017-11-29T18:00:08.085Z,950.9
2017-11-29T18:15:11.089Z,950.58
2017-11-29T18:30:07.609Z,950.79
2017-11-29T18:45:05.189Z,950.95
2017-11-29T19:00:05.035Z,951.27
2017-11-29T19:15:04.427Z,951.43
2017-11-29T19:30:04.522Z,951.81
2017-11-29T19:45:04.966Z,951.92
2017-11-29T20:00:05.480Z,952.24
2017-11-29T20:15:05.484Z,952.45
2017-11-29T20:30:05.933Z,952.56
2017-11-29T20:45:06.114Z,952.8
2017-11-29T21:00:04.777Z,953.23
2017-11-29T21:15:06.271Z,952.91
2017-11-29T21:30:08.277Z,953.31
2017-11-29T21:45:05.415Z,953.36
2017-11-29T22:00:05.343Z,953.87
2017-11-29T22:15:05.798Z,954.48
2017-11-29T22:30:04.882Z,954.7
2017-11-29T22:45:06.092Z,954.48
2017-11-29T23:00:04.980Z,954.64
2017-11-29T23:15:05.060Z,954.7
2017-11-29T23:30:04.857Z,954.11
2017-11-29T23:45:04.909Z,954.11
